Time;durP1;ratioP1;P1;durP2;ratioP2;P2;SDS_P1;SDS_P2;PMS_P1;PMS_P2;Temp;Humidity;BMP_temperature;BMP_pressure;BME280_temperature;BME280_humidity;BME280_pressure;Samples;Min_cycle;Max_cycle;Signal;HPM_P1;HPM_P2
2022/12/17 13:08:24;;;;;;;50.63;26.50;;;6.10;99.90;;;;;;5099555;28;20080;-81
2022/12/17 13:11:29;;;;;;;51.70;27.42;;;5.60;99.90;;;;;;5074219;28;20244;-79
2022/12/17 13:14:27;;;;;;;53.47;27.73;;;5.20;99.90;;;;;;5073116;28;20139;-80
2022/12/17 13:17:16;;;;;;;49.30;27.48;;;4.80;99.90;;;;;;5091362;28;20051;-84
2022/12/17 13:20:25;;;;;;;58.47;27.60;;;4.20;99.90;;;;;;5087224;28;20056;-85
2022/12/17 13:23:13;;;;;;;48.47;26.58;;;3.90;99.90;;;;;;5074062;28;20059;-82
2022/12/17 13:26:41;;;;;;;55.40;29.42;;;3.70;99.90;;;;;;5074740;28;20138;-87
2022/12/17 13:29:34;;;;;;;54.00;29.15;;;3.40;99.90;;;;;;5103533;28;20098;-79
2022/12/17 13:32:29;;;;;;;57.28;30.58;;;3.10;99.90;;;;;;5073260;28;20040;-82
2022/12/17 13:35:31;;;;;;;56.10;27.35;;;2.90;99.90;;;;;;5091884;28;20048;-80
2022/12/17 13:38:38;;;;;;;54.75;28.20;;;2.80;99.90;;;;;;5072700;28;20131;-82
2022/12/17 13:41:30;;;;;;;54.85;28.65;;;2.80;99.90;;;;;;5092139;28;20562;-81
2022/12/17 13:44:22;;;;;;;62.58;29.08;;;2.90;99.90;;;;;;5084004;28;20517;-86
2022/12/17 13:47:29;;;;;;;51.70;27.65;;;3.10;99.90;;;;;;5082453;28;20048;-81
2022/12/17 13:50:21;;;;;;;57.97;28.27;;;3.20;99.90;;;;;;5091657;28;20097;-80
2022/12/17 13:53:11;;;;;;;50.45;27.20;;;3.50;99.90;;;;;;5094903;28;20051;-78
2022/12/17 13:55:58;;;;;;;58.00;31.58;;;3.90;99.90;;;;;;5091744;28;20198;-82
2022/12/17 13:58:49;;;;;;;51.67;26.77;;;4.00;99.90;;;;;;5095927;28;20369;-76
2022/12/17 14:01:46;;;;;;;57.17;28.67;;;3.90;99.90;;;;;;5072154;28;20051;-80
2022/12/17 14:04:32;;;;;;;56.50;28.42;;;3.80;99.90;;;;;;5073485;28;20047;-81
2022/12/17 14:07:20;;;;;;;57.40;29.67;;;3.50;99.90;;;;;;5091804;28;20104;-79
2022/12/17 14:10:15;;;;;;;58.80;28.85;;;3.20;99.90;;;;;;5092207;28;20044;-78
2022/12/17 14:13:12;;;;;;;58.97;29.63;;;2.80;99.90;;;;;;5096752;28;20056;-86
2022/12/17 14:15:58;;;;;;;57.95;30.20;;;2.60;99.90;;;;;;5080156;28;20048;-80
2022/12/17 14:18:53;;;;;;;57.15;29.83;;;2.40;99.90;;;;;;5072998;28;20090;-84
2022/12/17 14:21:40;;;;;;;56.67;30.00;;;2.30;99.90;;;;;;5091938;28;20083;-78
2022/12/17 14:24:28;;;;;;;58.38;30.70;;;2.20;99.90;;;;;;5074178;28;20044;-81
2022/12/17 14:27:29;;;;;;;65.25;32.95;;;2.20;99.90;;;;;;5076521;28;20082;-85
2022/12/17 14:30:21;;;;;;;58.25;29.80;;;2.00;99.90;;;;;;5071057;28;20062;-77
2022/12/17 14:33:27;;;;;;;64.20;31.75;;;1.90;99.90;;;;;;5075721;28;20480;-85
2022/12/17 14:36:17;;;;;;;61.80;32.13;;;1.70;99.90;;;;;;5078451;28;20188;-75
2022/12/17 14:39:19;;;;;;;66.72;32.75;;;1.50;99.90;;;;;;5095226;28;20127;-79
2022/12/17 14:42:25;;;;;;;67.03;33.38;;;1.40;99.90;;;;;;5095506;28;20044;-77
2022/12/17 14:45:14;;;;;;;65.03;32.60;;;1.20;99.90;;;;;;5103088;28;20546;-78
2022/12/17 14:48:05;;;;;;;72.55;33.55;;;1.10;99.90;;;;;;5080164;28;20051;-83
2022/12/17 14:50:55;;;;;;;71.05;33.72;;;0.90;99.90;;;;;;5097500;28;20054;-82
2022/12/17 14:53:41;;;;;;;67.63;34.30;;;0.90;99.90;;;;;;5067960;28;20054;-77
2022/12/17 14:56:28;;;;;;;79.85;35.15;;;0.80;99.90;;;;;;5085682;28;20059;-80
2022/12/17 14:59:29;;;;;;;75.10;34.67;;;0.80;99.90;;;;;;5101355;28;20129;-77
2022/12/17 15:02:22;;;;;;;76.15;36.05;;;0.70;99.90;;;;;;5081301;28;20625;-78
2022/12/17 15:05:14;;;;;;;75.70;34.53;;;0.50;99.90;;;;;;5090243;28;20127;-78
2022/12/17 15:08:00;;;;;;;79.72;36.63;;;0.40;99.90;;;;;;5090372;28;20040;-77
2022/12/17 15:10:47;;;;;;;82.40;38.42;;;0.30;99.90;;;;;;5058932;28;20067;-82
2022/12/17 15:13:33;;;;;;;84.13;38.63;;;0.20;99.90;;;;;;5095730;28;20059;-81
2022/12/17 15:16:19;;;;;;;80.32;37.88;;;0.10;99.90;;;;;;5058125;28;20052;-79
2022/12/17 15:19:06;;;;;;;86.85;39.40;;;0.00;99.90;;;;;;5074071;28;20442;-79
2022/12/17 15:21:52;;;;;;;80.05;37.30;;;0.00;99.90;;;;;;5072673;28;20056;-78
2022/12/17 15:24:38;;;;;;;87.22;38.25;;;-0.10;99.90;;;;;;5095152;28;20040;-83
2022/12/17 15:27:25;;;;;;;87.53;41.10;;;-0.10;99.90;;;;;;5072502;28;20048;-80
2022/12/17 15:30:16;;;;;;;89.75;42.40;;;-0.20;99.90;;;;;;5093826;28;20040;-78
2022/12/17 15:33:02;;;;;;;84.25;39.05;;;-0.20;99.90;;;;;;5090286;28;20048;-82
2022/12/17 15:35:48;;;;;;;94.00;39.67;;;-0.30;99.90;;;;;;5058694;28;20047;-83
2022/12/17 15:38:35;;;;;;;93.05;41.70;;;-0.30;99.90;;;;;;5092109;28;20487;-85
2022/12/17 15:44:26;;;;;;;89.07;39.20;;;-0.50;99.90;;;;;;5091134;28;20090;-79
2022/12/17 15:47:12;;;;;;;93.45;42.63;;;-0.50;99.90;;;;;;5078454;28;20515;-80
2022/12/17 15:49:58;;;;;;;100.80;44.67;;;-0.50;99.90;;;;;;5090590;28;20496;-79
2022/12/17 15:52:44;;;;;;;91.85;42.58;;;-0.60;99.90;;;;;;5073843;28;20134;-82
2022/12/17 15:55:31;;;;;;;96.25;43.80;;;-0.60;99.90;;;;;;5067529;28;20078;-78
2022/12/17 15:58:18;;;;;;;94.32;41.88;;;-0.60;99.90;;;;;;5078919;28;20036;-80
2022/12/17 16:01:05;;;;;;;94.53;40.72;;;-0.60;99.90;;;;;;5086032;28;20048;-76
2022/12/17 16:03:51;;;;;;;95.70;41.45;;;-0.70;99.90;;;;;;5063465;28;20051;-80
2022/12/17 16:06:37;;;;;;;102.38;43.28;;;-0.80;99.90;;;;;;5078834;28;20056;-80
2022/12/17 16:09:25;;;;;;;104.18;44.08;;;-0.80;99.90;;;;;;5100501;28;20559;-82
2022/12/17 16:12:11;;;;;;;103.55;43.13;;;-0.90;99.90;;;;;;5094261;28;20071;-79
2022/12/17 16:14:58;;;;;;;97.47;43.05;;;-0.90;99.90;;;;;;5093991;28;20388;-80
2022/12/17 16:17:44;;;;;;;101.30;43.05;;;-0.90;99.90;;;;;;5075368;28;20849;-78
2022/12/17 16:20:30;;;;;;;110.97;46.00;;;-1.00;99.90;;;;;;5074906;28;20055;-79
2022/12/17 16:23:20;;;;;;;106.22;42.17;;;-1.00;99.90;;;;;;5096845;28;20040;-81
2022/12/17 16:26:08;;;;;;;101.30;43.22;;;-1.00;99.90;;;;;;5073733;28;20136;-78
2022/12/17 16:28:57;;;;;;;101.95;41.88;;;-1.00;99.90;;;;;;5060487;28;20058;-80
2022/12/17 16:31:47;;;;;;;104.95;44.38;;;-1.10;99.90;;;;;;5094414;28;20102;-78
2022/12/17 16:34:33;;;;;;;110.25;46.33;;;-1.10;99.90;;;;;;5074824;28;20114;-81
2022/12/17 16:37:20;;;;;;;106.93;44.10;;;-1.10;99.90;;;;;;5093888;28;20511;-82
2022/12/17 16:40:07;;;;;;;107.20;44.20;;;-1.10;99.90;;;;;;5097930;28;20048;-79
2022/12/17 16:42:54;;;;;;;105.68;42.80;;;-1.20;99.90;;;;;;5077379;28;20117;-79
2022/12/17 16:45:47;;;;;;;108.38;45.45;;;-1.20;99.90;;;;;;5100431;28;20113;-79
2022/12/17 16:48:38;;;;;;;109.97;46.05;;;-1.20;99.90;;;;;;5080692;28;20081;-78
2022/12/17 16:51:26;;;;;;;110.53;41.95;;;-1.30;99.90;;;;;;5092400;28;20044;-79
2022/12/17 16:54:15;;;;;;;102.43;45.63;;;-1.20;99.90;;;;;;5102604;28;20048;-78
2022/12/17 16:57:02;;;;;;;102.72;41.75;;;-1.30;99.90;;;;;;5092867;28;20101;-80
2022/12/17 16:59:48;;;;;;;107.90;44.33;;;-1.30;99.90;;;;;;5077874;28;20097;-78
2022/12/17 17:02:34;;;;;;;107.93;43.05;;;-1.30;99.90;;;;;;5093220;28;20052;-79
2022/12/17 17:05:20;;;;;;;109.57;42.35;;;-1.40;99.90;;;;;;5073989;28;20040;-79
2022/12/17 17:08:06;;;;;;;105.32;43.17;;;-1.40;99.90;;;;;;5083886;28;20052;-78
2022/12/17 17:10:53;;;;;;;111.82;43.67;;;-1.40;99.90;;;;;;5094230;28;20054;-77
2022/12/17 17:13:40;;;;;;;110.10;46.00;;;-1.40;99.90;;;;;;5092236;28;20058;-77
2022/12/17 17:16:26;;;;;;;103.95;43.40;;;-1.40;99.90;;;;;;5094837;28;20170;-77
2022/12/17 17:19:12;;;;;;;97.55;39.20;;;-1.30;99.90;;;;;;5075579;28;20416;-78
2022/12/17 17:21:58;;;;;;;107.30;40.88;;;-1.30;99.90;;;;;;5064040;28;20040;-82
2022/12/17 17:24:45;;;;;;;106.07;43.35;;;-1.30;99.90;;;;;;5096028;28;20044;-77
2022/12/17 17:27:31;;;;;;;99.97;42.42;;;-1.30;99.90;;;;;;5073950;28;20079;-81
2022/12/17 17:30:17;;;;;;;100.00;40.17;;;-1.30;99.90;;;;;;5091799;28;20066;-78
2022/12/17 17:33:03;;;;;;;100.05;40.45;;;-1.30;99.90;;;;;;5074274;28;20111;-78
2022/12/17 17:35:49;;;;;;;108.70;42.85;;;-1.30;99.90;;;;;;5075554;28;20141;-84
2022/12/17 17:38:37;;;;;;;106.10;42.58;;;-1.30;99.90;;;;;;5103657;28;20052;-79
2022/12/17 17:41:26;;;;;;;103.55;43.25;;;-1.30;99.90;;;;;;5093813;28;20142;-79
2022/12/17 17:44:13;;;;;;;98.65;41.80;;;-1.30;99.90;;;;;;5092766;28;20083;-78
2022/12/17 17:46:59;;;;;;;100.53;42.20;;;-1.40;99.90;;;;;;5075185;28;20074;-82
2022/12/17 17:49:45;;;;;;;108.32;41.40;;;-1.40;99.90;;;;;;5075764;28;20044;-81
2022/12/17 17:52:31;;;;;;;104.20;42.72;;;-1.50;99.90;;;;;;5069117;28;20052;-84
2022/12/17 17:55:17;;;;;;;105.43;42.72;;;-1.50;99.90;;;;;;5077279;28;20511;-85
2022/12/17 17:58:04;;;;;;;108.50;43.17;;;-1.50;99.90;;;;;;5061632;28;20059;-86
2022/12/17 18:00:50;;;;;;;102.53;39.58;;;-1.50;99.90;;;;;;5093290;28;20373;-81
2022/12/17 18:03:36;;;;;;;104.50;40.58;;;-1.50;99.90;;;;;;5078022;28;20142;-80
2022/12/17 18:06:22;;;;;;;113.07;44.13;;;-1.50;99.90;;;;;;5077961;28;20131;-83
2022/12/17 18:09:10;;;;;;;104.63;40.00;;;-1.50;99.90;;;;;;5094280;28;20048;-80
2022/12/17 18:13:53;;;;;;;110.40;41.25;;;-1.50;99.90;;;;;;5091968;28;20081;-80
2022/12/17 18:15:03;;;;;;;105.13;42.60;;;-1.50;99.90;;;;;;5067636;28;20059;-85
2022/12/17 18:17:50;;;;;;;96.00;38.38;;;-1.50;99.90;;;;;;5095998;28;20059;-83
2022/12/17 18:20:36;;;;;;;101.07;39.10;;;-1.50;99.90;;;;;;5078154;28;20048;-78
2022/12/17 18:23:22;;;;;;;100.10;39.75;;;-1.60;99.90;;;;;;5058064;28;20048;-78
2022/12/17 18:26:11;;;;;;;108.78;42.13;;;-1.60;99.90;;;;;;5059294;28;20133;-83
2022/12/17 18:29:01;;;;;;;100.32;38.25;;;-1.60;99.90;;;;;;5073029;28;20048;-78
2022/12/17 18:31:48;;;;;;;100.43;38.83;;;-1.70;99.90;;;;;;5094668;28;20055;-80
2022/12/17 18:34:35;;;;;;;101.28;40.85;;;-1.70;99.90;;;;;;5074846;28;20054;-82
2022/12/17 18:37:21;;;;;;;98.43;41.10;;;-1.70;99.90;;;;;;5091294;28;20051;-84
2022/12/17 18:40:08;;;;;;;100.38;39.83;;;-1.70;99.90;;;;;;5090428;28;20088;-81
2022/12/17 18:46:04;;;;;;;103.55;39.50;;;-1.70;99.90;;;;;;5100575;28;20419;-83
2022/12/17 18:48:52;;;;;;;106.13;41.17;;;-1.70;99.90;;;;;;5091901;28;20085;-81
2022/12/17 18:51:40;;;;;;;105.18;40.72;;;-1.70;99.90;;;;;;5091728;28;20066;-81
2022/12/17 18:54:29;;;;;;;102.53;42.20;;;-1.70;99.90;;;;;;5090810;28;20122;-85
2022/12/17 18:57:15;;;;;;;96.95;37.60;;;-1.70;99.90;;;;;;5091484;28;20059;-79
2022/12/17 19:00:01;;;;;;;97.78;38.55;;;-1.70;99.90;;;;;;5082653;28;20039;-86
2022/12/17 19:02:47;;;;;;;111.82;43.72;;;-1.60;99.90;;;;;;5077796;28;20063;-79
2022/12/17 19:05:36;;;;;;;102.43;39.22;;;-1.70;99.90;;;;;;5093868;28;20055;-85
2022/12/17 19:08:23;;;;;;;96.35;39.38;;;-1.70;99.90;;;;;;5089560;28;20524;-82
2022/12/17 19:11:11;;;;;;;106.50;41.28;;;-1.70;99.90;;;;;;5091382;28;20040;-84
2022/12/17 19:13:57;;;;;;;102.97;38.60;;;-1.70;99.90;;;;;;5084568;28;20066;-85
2022/12/17 19:16:44;;;;;;;99.07;40.15;;;-1.70;99.90;;;;;;5075429;28;20203;-78
2022/12/17 19:19:31;;;;;;;105.28;41.25;;;-1.70;99.90;;;;;;5072229;28;20063;-79
2022/12/17 19:22:17;;;;;;;101.28;39.45;;;-1.70;99.90;;;;;;5072084;28;20459;-79
2022/12/17 19:25:03;;;;;;;99.95;38.42;;;-1.60;99.90;;;;;;5075756;28;20047;-85
2022/12/17 19:27:49;;;;;;;101.70;37.15;;;-1.60;99.90;;;;;;5090819;28;20427;-78
2022/12/17 19:30:36;;;;;;;104.80;37.92;;;-1.70;99.90;;;;;;5045392;28;20055;-84
2022/12/17 19:33:22;;;;;;;103.95;39.22;;;-1.70;99.90;;;;;;5082971;28;20396;-79
2022/12/17 19:36:21;;;;;;;96.95;38.00;;;-1.70;99.90;;;;;;5094868;28;20380;-84
2022/12/17 19:39:12;;;;;;;102.20;37.08;;;-1.70;99.90;;;;;;5063579;28;20097;-80
2022/12/17 19:41:58;;;;;;;100.22;39.92;;;-1.80;99.90;;;;;;5081565;28;20052;-76
2022/12/17 19:44:44;;;;;;;98.97;36.38;;;-1.90;99.90;;;;;;5085788;28;20439;-79
2022/12/17 19:47:30;;;;;;;90.28;38.22;;;-1.90;99.90;;;;;;5099770;28;20048;-80
2022/12/17 19:50:16;;;;;;;98.10;37.60;;;-2.00;99.90;;;;;;5085326;28;20121;-80
2022/12/17 19:53:02;;;;;;;104.57;40.47;;;-2.00;99.90;;;;;;5077730;28;20380;-84
2022/12/17 19:55:49;;;;;;;96.63;38.78;;;-2.00;99.90;;;;;;5095399;28;20566;-78
2022/12/17 19:58:35;;;;;;;107.43;37.75;;;-2.10;99.90;;;;;;5094717;28;20048;-76
2022/12/17 20:01:27;;;;;;;105.13;41.80;;;-2.10;99.90;;;;;;5076590;28;20044;-80
2022/12/17 20:04:15;;;;;;;92.75;36.63;;;-2.10;99.90;;;;;;5083240;28;20064;-84
2022/12/17 20:07:01;;;;;;;111.78;42.00;;;-2.10;99.90;;;;;;5093276;28;20048;-82
2022/12/17 20:09:48;;;;;;;109.18;37.97;;;-2.10;99.90;;;;;;5075050;28;20488;-81
2022/12/17 20:12:34;;;;;;;103.22;37.70;;;-2.20;99.90;;;;;;5075818;28;20782;-83
2022/12/17 20:15:21;;;;;;;104.63;42.13;;;-2.20;99.90;;;;;;5078715;28;20066;-84
2022/12/17 20:18:07;;;;;;;107.30;40.78;;;-2.20;99.90;;;;;;5099882;28;20086;-84
2022/12/17 20:21:03;;;;;;;107.50;40.50;;;-2.20;99.90;;;;;;5081409;28;20048;-85
2022/12/17 20:23:50;;;;;;;109.18;41.17;;;-2.30;99.90;;;;;;5099505;28;20047;-83
2022/12/17 20:26:36;;;;;;;104.95;38.28;;;-2.30;99.90;;;;;;5101287;28;20056;-81
2022/12/17 20:29:24;;;;;;;115.85;38.72;;;-2.40;99.90;;;;;;5076663;28;20048;-80
2022/12/17 20:32:10;;;;;;;118.63;42.80;;;-2.40;99.90;;;;;;5078359;28;20055;-83
2022/12/17 20:34:56;;;;;;;109.05;40.22;;;-2.40;99.90;;;;;;5097692;28;20118;-83
2022/12/17 20:37:45;;;;;;;114.38;39.33;;;-2.50;99.90;;;;;;5093390;28;20055;-85
2022/12/17 20:40:32;;;;;;;112.28;38.88;;;-2.50;99.90;;;;;;5093316;28;20522;-85
2022/12/17 20:43:18;;;;;;;108.43;40.33;;;-2.50;99.90;;;;;;5092629;28;20084;-81
2022/12/17 20:46:08;;;;;;;119.07;41.00;;;-2.50;99.90;;;;;;5093446;28;20071;-81
2022/12/17 20:48:54;;;;;;;108.47;40.47;;;-2.50;99.90;;;;;;5096149;28;20059;-80
2022/12/17 20:51:40;;;;;;;108.63;40.17;;;-2.60;99.90;;;;;;5094669;28;20111;-85
2022/12/17 20:54:27;;;;;;;120.72;43.08;;;-2.60;99.90;;;;;;5096053;28;20066;-80
2022/12/17 20:57:13;;;;;;;116.25;39.28;;;-2.60;99.90;;;;;;5092460;28;20138;-81
2022/12/17 20:59:59;;;;;;;117.82;40.45;;;-2.60;99.90;;;;;;5091002;28;20044;-81
2022/12/17 21:02:45;;;;;;;115.18;38.20;;;-2.60;99.90;;;;;;5082533;28;20055;-85
2022/12/17 21:05:34;;;;;;;113.47;38.38;;;-2.60;99.90;;;;;;5093158;28;20569;-83
2022/12/17 21:08:20;;;;;;;111.28;39.22;;;-2.70;99.90;;;;;;5091190;28;20044;-80
2022/12/17 21:11:07;;;;;;;121.43;45.78;;;-2.70;99.90;;;;;;5092438;28;20043;-79
2022/12/17 21:13:54;;;;;;;121.00;40.28;;;-2.70;99.90;;;;;;5091204;28;20542;-84
2022/12/17 21:16:41;;;;;;;112.00;39.00;;;-2.70;99.90;;;;;;5077627;28;20095;-80
2022/12/17 21:19:28;;;;;;;109.72;40.72;;;-2.70;99.90;;;;;;5097534;28;20135;-80
2022/12/17 21:22:14;;;;;;;111.40;39.72;;;-2.70;99.90;;;;;;5090945;28;20055;-81
2022/12/17 21:25:00;;;;;;;102.55;40.92;;;-2.80;99.90;;;;;;5090684;28;20044;-81
2022/12/17 21:27:46;;;;;;;110.43;38.00;;;-2.80;99.90;;;;;;5074146;28;20189;-80
2022/12/17 21:30:36;;;;;;;108.47;38.50;;;-2.80;99.90;;;;;;5074371;28;20066;-78
2022/12/17 21:33:25;;;;;;;104.45;37.00;;;-2.80;99.90;;;;;;5085845;28;20491;-84
2022/12/17 21:36:11;;;;;;;119.82;45.00;;;-2.90;99.90;;;;;;5093386;28;20606;-83
2022/12/17 21:38:58;;;;;;;118.15;41.63;;;-2.90;99.90;;;;;;5091772;28;20070;-82
2022/12/17 21:44:53;;;;;;;119.28;42.40;;;-2.90;99.90;;;;;;5091438;28;20063;-82
2022/12/17 21:47:39;;;;;;;128.65;42.75;;;-2.90;99.90;;;;;;5095850;28;20048;-82
2022/12/17 21:50:25;;;;;;;116.97;42.38;;;-2.90;99.90;;;;;;5083076;28;20093;-84
2022/12/17 21:53:11;;;;;;;117.60;41.78;;;-2.90;99.90;;;;;;5091351;28;20040;-81
2022/12/17 21:56:06;;;;;;;129.65;43.13;;;-2.90;99.90;;;;;;5091253;28;20510;-79
2022/12/17 21:58:58;;;;;;;114.43;41.45;;;-2.90;99.90;;;;;;5091025;28;20131;-77
2022/12/17 22:01:44;;;;;;;111.75;40.45;;;-2.90;99.90;;;;;;5058708;28;20064;-82
2022/12/17 22:04:30;;;;;;;121.43;40.50;;;-2.90;99.90;;;;;;5091106;28;20087;-83
2022/12/17 22:07:16;;;;;;;116.70;42.08;;;-3.00;99.90;;;;;;5082196;28;20062;-78
2022/12/17 22:10:03;;;;;;;108.60;41.20;;;-2.90;99.90;;;;;;5072302;28;20775;-80
2022/12/17 22:15:54;;;;;;;101.72;38.58;;;-2.90;99.90;;;;;;5090566;28;20506;-83
2022/12/17 22:18:40;;;;;;;100.63;41.25;;;-2.90;99.90;;;;;;5062085;28;20083;-84
2022/12/17 22:21:26;;;;;;;114.32;41.17;;;-3.00;99.90;;;;;;5101688;28;20044;-82
2022/12/17 22:24:20;;;;;;;102.63;40.28;;;-2.90;99.90;;;;;;5092470;28;20047;-84
2022/12/17 22:27:06;;;;;;;105.53;42.40;;;-2.90;99.90;;;;;;5058440;28;20048;-83
2022/12/17 22:33:04;;;;;;;112.57;41.75;;;-3.00;99.90;;;;;;5074455;28;20105;-81
2022/12/17 22:35:50;;;;;;;113.07;43.47;;;-3.10;99.90;;;;;;5079471;28;20078;-83
2022/12/17 22:38:36;;;;;;;115.18;45.72;;;-3.10;99.90;;;;;;5075306;28;20043;-83
2022/12/17 22:44:26;;;;;;;119.90;43.20;;;-3.10;99.90;;;;;;5096456;28;20069;-80
2022/12/17 22:47:12;;;;;;;118.43;45.70;;;-3.10;99.90;;;;;;5092448;28;20126;-82
2022/12/17 22:49:59;;;;;;;123.00;45.60;;;-3.00;99.90;;;;;;5080895;28;20052;-78
2022/12/17 22:52:45;;;;;;;116.43;42.85;;;-3.10;99.90;;;;;;5090170;28;20056;-80
2022/12/17 22:55:32;;;;;;;127.60;45.83;;;-3.10;99.90;;;;;;5058229;28;20056;-76
2022/12/17 22:58:18;;;;;;;126.53;47.05;;;-3.10;99.90;;;;;;5071444;28;20048;-77
2022/12/17 23:01:05;;;;;;;125.93;44.72;;;-3.10;99.90;;;;;;5089192;28;20142;-82
2022/12/17 23:03:55;;;;;;;128.18;47.90;;;-3.00;99.90;;;;;;5096713;28;20048;-82
2022/12/17 23:06:45;;;;;;;123.05;45.08;;;-3.00;99.90;;;;;;5083182;28;20059;-82
2022/12/17 23:09:31;;;;;;;127.70;42.50;;;-3.00;99.90;;;;;;5076406;28;20094;-82
2022/12/17 23:15:49;;;;;;;118.80;43.97;;;-3.00;99.90;;;;;;5076717;28;20497;-81
2022/12/17 23:18:36;;;;;;;122.65;45.95;;;-3.00;99.90;;;;;;5094691;28;20523;-79
2022/12/17 23:21:24;;;;;;;114.55;43.28;;;-3.00;99.90;;;;;;5100951;28;20056;-82
2022/12/17 23:24:10;;;;;;;122.38;44.63;;;-3.00;99.90;;;;;;5093460;28;20074;-81
2022/12/17 23:26:56;;;;;;;116.20;43.10;;;-3.00;99.90;;;;;;5096950;28;20148;-77
2022/12/17 23:29:43;;;;;;;123.95;42.75;;;-3.00;99.90;;;;;;5078330;28;20855;-81
2022/12/17 23:32:29;;;;;;;123.28;43.65;;;-3.00;99.90;;;;;;5093160;28;20385;-84
2022/12/17 23:35:15;;;;;;;118.70;41.10;;;-3.00;99.90;;;;;;5098459;28;20139;-79
2022/12/17 23:38:01;;;;;;;125.70;45.50;;;-3.00;99.90;;;;;;5075097;28;20047;-77
2022/12/17 23:40:48;;;;;;;112.03;41.15;;;-3.00;99.90;;;;;;5076330;28;20047;-78
2022/12/17 23:43:34;;;;;;;124.28;45.50;;;-3.00;99.90;;;;;;5075020;28;20052;-79
2022/12/17 23:46:23;;;;;;;121.28;43.50;;;-3.00;99.90;;;;;;5093248;28;20521;-82
2022/12/17 23:49:09;;;;;;;118.13;42.72;;;-3.00;99.90;;;;;;5081728;28;20048;-78
2022/12/17 23:51:55;;;;;;;119.50;44.78;;;-3.00;99.90;;;;;;5080337;28;20048;-84
2022/12/17 23:54:41;;;;;;;105.95;40.72;;;-3.00;99.90;;;;;;5069932;28;20127;-83
2022/12/17 23:57:27;;;;;;;122.90;45.35;;;-3.00;99.90;;;;;;5074867;28;20529;-77
